sensor_id;sensor_type;location;lat;lon;timestamp;temperature;humidity
52323;DHT22;38263;52.920;6.238;2022-12-07T00:04:30;3.20;99.90
52323;DHT22;38263;52.920;6.238;2022-12-07T00:06:56;3.20;99.90
52323;DHT22;38263;52.920;6.238;2022-12-07T00:09:21;3.20;99.90
52323;DHT22;38263;52.920;6.238;2022-12-07T00:11:51;3.20;99.90
52323;DHT22;38263;52.920;6.238;2022-12-07T00:16:44;3.40;99.90
52323;DHT22;38263;52.920;6.238;2022-12-07T00:24:04;3.30;99.90
52323;DHT22;38263;52.920;6.238;2022-12-07T00:26:34;3.30;99.90
52323;DHT22;38263;52.920;6.238;2022-12-07T00:29:03;3.40;99.90
52323;DHT22;38263;52.920;6.238;2022-12-07T00:31:35;3.40;99.90
52323;DHT22;38263;52.920;6.238;2022-12-07T00:34:05;3.50;99.90
52323;DHT22;38263;52.920;6.238;2022-12-07T00:36:31;3.60;99.90
52323;DHT22;38263;52.920;6.238;2022-12-07T00:39:00;3.60;99.90
52323;DHT22;38263;52.920;6.238;2022-12-07T00:41:27;3.60;99.90
52323;DHT22;38263;52.920;6.238;2022-12-07T00:46:20;4.00;99.90
52323;DHT22;38263;52.920;6.238;2022-12-07T00:48:47;3.90;99.90
52323;DHT22;38263;52.920;6.238;2022-12-07T00:51:14;3.90;99.90
52323;DHT22;38263;52.920;6.238;2022-12-07T00:53:40;4.10;99.90
52323;DHT22;38263;52.920;6.238;2022-12-07T00:56:11;4.00;99.90
52323;DHT22;38263;52.920;6.238;2022-12-07T00:58:37;3.80;99.90
52323;DHT22;38263;52.920;6.238;2022-12-07T01:01:04;3.90;99.90
52323;DHT22;38263;52.920;6.238;2022-12-07T01:03:30;3.90;99.90
52323;DHT22;38263;52.920;6.238;2022-12-07T01:05:57;3.70;99.90
52323;DHT22;38263;52.920;6.238;2022-12-07T01:08:24;3.70;99.90
52323;DHT22;38263;52.920;6.238;2022-12-07T01:11:01;3.80;99.90
52323;DHT22;38263;52.920;6.238;2022-12-07T01:13:27;3.70;99.90
52323;DHT22;38263;52.920;6.238;2022-12-07T01:15:59;3.70;99.90
52323;DHT22;38263;52.920;6.238;2022-12-07T01:18:27;3.70;99.90
52323;DHT22;38263;52.920;6.238;2022-12-07T01:21:17;3.50;99.90
52323;DHT22;38263;52.920;6.238;2022-12-07T01:23:44;3.60;99.90
52323;DHT22;38263;52.920;6.238;2022-12-07T01:26:12;3.50;99.90
52323;DHT22;38263;52.920;6.238;2022-12-07T01:31:10;3.40;99.90
52323;DHT22;38263;52.920;6.238;2022-12-07T01:33:44;3.40;99.90
52323;DHT22;38263;52.920;6.238;2022-12-07T01:38:41;3.30;99.90
52323;DHT22;38263;52.920;6.238;2022-12-07T01:41:07;3.30;99.90
52323;DHT22;38263;52.920;6.238;2022-12-07T01:43:34;3.30;99.90
52323;DHT22;38263;52.920;6.238;2022-12-07T01:46:00;3.30;99.90
52323;DHT22;38263;52.920;6.238;2022-12-07T01:48:38;3.30;99.90
52323;DHT22;38263;52.920;6.238;2022-12-07T01:51:08;3.20;99.90
52323;DHT22;38263;52.920;6.238;2022-12-07T01:53:36;3.20;99.90
52323;DHT22;38263;52.920;6.238;2022-12-07T01:56:03;3.30;99.90
52323;DHT22;38263;52.920;6.238;2022-12-07T01:58:28;3.40;99.90
52323;DHT22;38263;52.920;6.238;2022-12-07T02:00:54;3.20;99.90
52323;DHT22;38263;52.920;6.238;2022-12-07T02:03:26;3.30;99.90
52323;DHT22;38263;52.920;6.238;2022-12-07T02:05:52;3.20;99.90
52323;DHT22;38263;52.920;6.238;2022-12-07T02:08:18;3.30;99.90
52323;DHT22;38263;52.920;6.238;2022-12-07T02:10:45;3.40;99.90
52323;DHT22;38263;52.920;6.238;2022-12-07T02:13:15;3.20;99.90
52323;DHT22;38263;52.920;6.238;2022-12-07T02:16:00;3.30;99.90
52323;DHT22;38263;52.920;6.238;2022-12-07T02:21:43;3.10;99.90
52323;DHT22;38263;52.920;6.238;2022-12-07T02:32:23;3.30;99.90
52323;DHT22;38263;52.920;6.238;2022-12-07T02:40:37;3.50;99.90
52323;DHT22;38263;52.920;6.238;2022-12-07T02:43:14;3.50;99.90
52323;DHT22;38263;52.920;6.238;2022-12-07T02:45:42;3.60;99.90
52323;DHT22;38263;52.920;6.238;2022-12-07T02:53:03;3.60;99.90
52323;DHT22;38263;52.920;6.238;2022-12-07T02:55:35;3.50;99.90
52323;DHT22;38263;52.920;6.238;2022-12-07T02:58:06;3.60;99.90
52323;DHT22;38263;52.920;6.238;2022-12-07T03:01:05;3.70;99.90
52323;DHT22;38263;52.920;6.238;2022-12-07T03:03:35;3.60;99.90
52323;DHT22;38263;52.920;6.238;2022-12-07T03:08:41;3.80;99.90
52323;DHT22;38263;52.920;6.238;2022-12-07T03:11:14;3.60;99.90
52323;DHT22;38263;52.920;6.238;2022-12-07T03:13:49;3.80;99.90
52323;DHT22;38263;52.920;6.238;2022-12-07T03:16:18;3.60;99.90
52323;DHT22;38263;52.920;6.238;2022-12-07T03:18:52;3.50;99.90
52323;DHT22;38263;52.920;6.238;2022-12-07T03:21:22;3.50;99.90
52323;DHT22;38263;52.920;6.238;2022-12-07T03:23:53;3.70;99.90
52323;DHT22;38263;52.920;6.238;2022-12-07T03:26:23;3.60;99.90
52323;DHT22;38263;52.920;6.238;2022-12-07T03:28:53;3.50;99.90
52323;DHT22;38263;52.920;6.238;2022-12-07T03:36:40;3.70;99.90
52323;DHT22;38263;52.920;6.238;2022-12-07T03:39:21;3.60;99.90
52323;DHT22;38263;52.920;6.238;2022-12-07T03:41:49;3.60;99.90
52323;DHT22;38263;52.920;6.238;2022-12-07T03:44:15;3.50;99.90
52323;DHT22;38263;52.920;6.238;2022-12-07T03:46:45;3.40;99.90
52323;DHT22;38263;52.920;6.238;2022-12-07T03:49:23;3.50;99.90
52323;DHT22;38263;52.920;6.238;2022-12-07T03:52:03;3.50;99.90
52323;DHT22;38263;52.920;6.238;2022-12-07T03:54:57;3.50;99.90
52323;DHT22;38263;52.920;6.238;2022-12-07T03:57:26;3.40;99.90
52323;DHT22;38263;52.920;6.238;2022-12-07T03:59:54;3.30;99.90
52323;DHT22;38263;52.920;6.238;2022-12-07T04:02:21;3.30;99.90
52323;DHT22;38263;52.920;6.238;2022-12-07T04:04:47;3.30;99.90
52323;DHT22;38263;52.920;6.238;2022-12-07T04:07:13;3.30;99.90
52323;DHT22;38263;52.920;6.238;2022-12-07T04:09:38;3.10;99.90
52323;DHT22;38263;52.920;6.238;2022-12-07T04:12:04;3.10;99.90
52323;DHT22;38263;52.920;6.238;2022-12-07T04:14:30;3.10;99.90
52323;DHT22;38263;52.920;6.238;2022-12-07T04:16:58;3.20;99.90
52323;DHT22;38263;52.920;6.238;2022-12-07T04:19:31;3.10;99.90
52323;DHT22;38263;52.920;6.238;2022-12-07T04:24:24;3.20;99.90
52323;DHT22;38263;52.920;6.238;2022-12-07T04:26:50;3.20;99.90
52323;DHT22;38263;52.920;6.238;2022-12-07T04:29:17;3.20;99.90
52323;DHT22;38263;52.920;6.238;2022-12-07T04:34:09;3.30;99.90
52323;DHT22;38263;52.920;6.238;2022-12-07T04:36:36;3.40;99.90
52323;DHT22;38263;52.920;6.238;2022-12-07T04:39:03;3.40;99.90
52323;DHT22;38263;52.920;6.238;2022-12-07T04:41:28;3.50;99.90
52323;DHT22;38263;52.920;6.238;2022-12-07T04:43:55;3.50;99.90
52323;DHT22;38263;52.920;6.238;2022-12-07T04:46:22;3.50;99.90
52323;DHT22;38263;52.920;6.238;2022-12-07T04:51:19;3.40;99.90
52323;DHT22;38263;52.920;6.238;2022-12-07T04:53:45;3.40;99.90
52323;DHT22;38263;52.920;6.238;2022-12-07T04:56:10;3.20;99.90
52323;DHT22;38263;52.920;6.238;2022-12-07T04:58:36;3.30;99.90
52323;DHT22;38263;52.920;6.238;2022-12-07T05:03:28;3.30;99.90
52323;DHT22;38263;52.920;6.238;2022-12-07T05:05:53;3.00;99.90
52323;DHT22;38263;52.920;6.238;2022-12-07T05:08:19;3.10;99.90
52323;DHT22;38263;52.920;6.238;2022-12-07T05:10:44;3.00;99.90
52323;DHT22;38263;52.920;6.238;2022-12-07T05:13:10;3.10;99.90
52323;DHT22;38263;52.920;6.238;2022-12-07T05:15:35;3.00;99.90
52323;DHT22;38263;52.920;6.238;2022-12-07T05:18:01;3.00;99.90
52323;DHT22;38263;52.920;6.238;2022-12-07T05:22:52;3.00;99.90
52323;DHT22;38263;52.920;6.238;2022-12-07T05:25:18;2.90;99.90
52323;DHT22;38263;52.920;6.238;2022-12-07T05:27:43;2.80;99.90
52323;DHT22;38263;52.920;6.238;2022-12-07T05:30:09;2.90;99.90
52323;DHT22;38263;52.920;6.238;2022-12-07T05:32:35;2.90;99.90
52323;DHT22;38263;52.920;6.238;2022-12-07T05:35:00;3.00;99.90
52323;DHT22;38263;52.920;6.238;2022-12-07T05:37:26;3.00;99.90
52323;DHT22;38263;52.920;6.238;2022-12-07T05:39:51;3.20;99.90
52323;DHT22;38263;52.920;6.238;2022-12-07T05:42:17;2.90;99.90
52323;DHT22;38263;52.920;6.238;2022-12-07T05:44:44;2.90;99.90
52323;DHT22;38263;52.920;6.238;2022-12-07T05:47:11;3.00;99.90
52323;DHT22;38263;52.920;6.238;2022-12-07T05:49:37;3.00;99.90
52323;DHT22;38263;52.920;6.238;2022-12-07T05:52:03;3.00;99.90
52323;DHT22;38263;52.920;6.238;2022-12-07T05:54:29;3.10;99.90
52323;DHT22;38263;52.920;6.238;2022-12-07T05:56:54;3.10;99.90
52323;DHT22;38263;52.920;6.238;2022-12-07T05:59:20;3.10;99.90
52323;DHT22;38263;52.920;6.238;2022-12-07T06:02:00;3.10;99.90
52323;DHT22;38263;52.920;6.238;2022-12-07T06:06:53;3.20;99.90
52323;DHT22;38263;52.920;6.238;2022-12-07T06:09:21;3.30;99.90
52323;DHT22;38263;52.920;6.238;2022-12-07T06:11:47;3.40;99.90
52323;DHT22;38263;52.920;6.238;2022-12-07T06:14:31;3.20;99.90
52323;DHT22;38263;52.920;6.238;2022-12-07T06:16:58;3.40;99.90
52323;DHT22;38263;52.920;6.238;2022-12-07T06:19:23;3.50;99.90
52323;DHT22;38263;52.920;6.238;2022-12-07T06:21:49;3.50;99.90
52323;DHT22;38263;52.920;6.238;2022-12-07T06:24:16;3.50;99.90
52323;DHT22;38263;52.920;6.238;2022-12-07T06:26:41;3.50;99.90
52323;DHT22;38263;52.920;6.238;2022-12-07T06:31:33;3.50;99.90
52323;DHT22;38263;52.920;6.238;2022-12-07T06:34:02;3.40;99.90
52323;DHT22;38263;52.920;6.238;2022-12-07T06:36:28;3.40;99.90
52323;DHT22;38263;52.920;6.238;2022-12-07T06:38:54;3.40;99.90
52323;DHT22;38263;52.920;6.238;2022-12-07T06:41:20;3.50;99.90
52323;DHT22;38263;52.920;6.238;2022-12-07T06:43:46;3.40;99.90
52323;DHT22;38263;52.920;6.238;2022-12-07T06:46:12;3.50;99.90
52323;DHT22;38263;52.920;6.238;2022-12-07T06:48:37;3.30;99.90
52323;DHT22;38263;52.920;6.238;2022-12-07T06:51:03;3.30;99.90
52323;DHT22;38263;52.920;6.238;2022-12-07T06:53:29;3.40;99.90
52323;DHT22;38263;52.920;6.238;2022-12-07T06:55:54;3.40;99.90
52323;DHT22;38263;52.920;6.238;2022-12-07T06:58:20;3.20;99.90
52323;DHT22;38263;52.920;6.238;2022-12-07T07:00:47;3.30;99.90
52323;DHT22;38263;52.920;6.238;2022-12-07T07:03:12;3.30;99.90
52323;DHT22;38263;52.920;6.238;2022-12-07T07:05:38;3.20;99.90
52323;DHT22;38263;52.920;6.238;2022-12-07T07:08:04;3.20;99.90
52323;DHT22;38263;52.920;6.238;2022-12-07T07:10:30;3.30;99.90
52323;DHT22;38263;52.920;6.238;2022-12-07T07:12:56;3.10;99.90
52323;DHT22;38263;52.920;6.238;2022-12-07T07:15:21;3.20;99.90
52323;DHT22;38263;52.920;6.238;2022-12-07T07:17:47;3.10;99.90
52323;DHT22;38263;52.920;6.238;2022-12-07T07:20:14;3.10;99.90
52323;DHT22;38263;52.920;6.238;2022-12-07T07:22:39;3.20;99.90
52323;DHT22;38263;52.920;6.238;2022-12-07T07:25:05;3.10;99.90
52323;DHT22;38263;52.920;6.238;2022-12-07T07:29:57;3.20;99.90
52323;DHT22;38263;52.920;6.238;2022-12-07T07:32:22;3.50;99.90
52323;DHT22;38263;52.920;6.238;2022-12-07T07:34:48;3.40;99.90
52323;DHT22;38263;52.920;6.238;2022-12-07T07:37:14;3.30;99.90
52323;DHT22;38263;52.920;6.238;2022-12-07T07:39:39;3.40;99.90
52323;DHT22;38263;52.920;6.238;2022-12-07T07:44:33;3.40;99.90
52323;DHT22;38263;52.920;6.238;2022-12-07T07:46:59;3.40;99.90
52323;DHT22;38263;52.920;6.238;2022-12-07T07:49:25;3.50;99.90
52323;DHT22;38263;52.920;6.238;2022-12-07T07:51:51;3.40;99.90
52323;DHT22;38263;52.920;6.238;2022-12-07T07:56:42;3.50;99.90
52323;DHT22;38263;52.920;6.238;2022-12-07T07:59:08;3.40;99.90
52323;DHT22;38263;52.920;6.238;2022-12-07T08:01:34;3.30;99.90
52323;DHT22;38263;52.920;6.238;2022-12-07T08:03:59;3.40;99.90
52323;DHT22;38263;52.920;6.238;2022-12-07T08:06:25;3.30;99.90
52323;DHT22;38263;52.920;6.238;2022-12-07T08:08:51;3.20;99.90
52323;DHT22;38263;52.920;6.238;2022-12-07T08:13:45;3.00;99.90
52323;DHT22;38263;52.920;6.238;2022-12-07T08:16:11;3.20;99.90
52323;DHT22;38263;52.920;6.238;2022-12-07T08:18:38;3.10;99.90
52323;DHT22;38263;52.920;6.238;2022-12-07T08:21:05;3.30;99.90
52323;DHT22;38263;52.920;6.238;2022-12-07T08:23:31;3.40;99.90
52323;DHT22;38263;52.920;6.238;2022-12-07T08:26:05;3.50;99.90
52323;DHT22;38263;52.920;6.238;2022-12-07T08:28:31;3.50;99.90
52323;DHT22;38263;52.920;6.238;2022-12-07T08:33:29;3.60;99.90
52323;DHT22;38263;52.920;6.238;2022-12-07T08:38:20;3.70;99.90
52323;DHT22;38263;52.920;6.238;2022-12-07T08:40:54;3.70;99.90
52323;DHT22;38263;52.920;6.238;2022-12-07T08:50:42;3.60;99.90
52323;DHT22;38263;52.920;6.238;2022-12-07T08:55:34;3.60;99.90
52323;DHT22;38263;52.920;6.238;2022-12-07T09:00:27;3.50;99.90
52323;DHT22;38263;52.920;6.238;2022-12-07T09:02:53;3.50;99.90
52323;DHT22;38263;52.920;6.238;2022-12-07T09:10:14;5.20;99.90
52323;DHT22;38263;52.920;6.238;2022-12-07T09:12:40;5.10;99.90
52323;DHT22;38263;52.920;6.238;2022-12-07T09:15:06;5.30;99.90
52323;DHT22;38263;52.920;6.238;2022-12-07T09:20:00;5.70;99.90
52323;DHT22;38263;52.920;6.238;2022-12-07T09:24:56;5.90;99.90
52323;DHT22;38263;52.920;6.238;2022-12-07T09:32:13;5.60;99.90
52323;DHT22;38263;52.920;6.238;2022-12-07T09:37:05;5.50;99.90
52323;DHT22;38263;52.920;6.238;2022-12-07T09:41:58;5.30;99.90
52323;DHT22;38263;52.920;6.238;2022-12-07T09:44:25;5.20;99.90
52323;DHT22;38263;52.920;6.238;2022-12-07T09:46:52;5.30;99.90
52323;DHT22;38263;52.920;6.238;2022-12-07T09:49:20;5.10;99.90
52323;DHT22;38263;52.920;6.238;2022-12-07T09:54:15;5.10;99.90
52323;DHT22;38263;52.920;6.238;2022-12-07T09:56:42;5.10;99.90
52323;DHT22;38263;52.920;6.238;2022-12-07T09:59:17;5.00;99.90
52323;DHT22;38263;52.920;6.238;2022-12-07T10:01:44;5.10;99.90
52323;DHT22;38263;52.920;6.238;2022-12-07T10:06:41;5.30;99.90
52323;DHT22;38263;52.920;6.238;2022-12-07T10:09:18;5.50;99.90
52323;DHT22;38263;52.920;6.238;2022-12-07T10:14:30;5.70;99.90
52323;DHT22;38263;52.920;6.238;2022-12-07T10:16:56;5.80;99.90
52323;DHT22;38263;52.920;6.238;2022-12-07T10:19:30;5.90;99.90
52323;DHT22;38263;52.920;6.238;2022-12-07T10:22:25;6.00;99.90
52323;DHT22;38263;52.920;6.238;2022-12-07T10:24:51;6.30;99.90
52323;DHT22;38263;52.920;6.238;2022-12-07T10:27:25;6.40;99.90
52323;DHT22;38263;52.920;6.238;2022-12-07T10:29:52;6.50;99.90
52323;DHT22;38263;52.920;6.238;2022-12-07T10:34:44;6.50;99.90
52323;DHT22;38263;52.920;6.238;2022-12-07T10:39:53;6.30;99.90
52323;DHT22;38263;52.920;6.238;2022-12-07T10:42:29;6.40;99.90
52323;DHT22;38263;52.920;6.238;2022-12-07T10:45:24;6.50;99.90
52323;DHT22;38263;52.920;6.238;2022-12-07T11:01:46;6.70;99.90
52323;DHT22;38263;52.920;6.238;2022-12-07T11:04:24;6.70;99.90
52323;DHT22;38263;52.920;6.238;2022-12-07T11:07:10;6.90;99.90
52323;DHT22;38263;52.920;6.238;2022-12-07T11:12:42;6.80;99.90
52323;DHT22;38263;52.920;6.238;2022-12-07T11:15:55;6.70;99.90
52323;DHT22;38263;52.920;6.238;2022-12-07T11:21:11;6.60;99.90
52323;DHT22;38263;52.920;6.238;2022-12-07T11:24:06;6.60;99.90
52323;DHT22;38263;52.920;6.238;2022-12-07T11:26:57;6.60;99.90
52323;DHT22;38263;52.920;6.238;2022-12-07T11:35:22;6.30;99.90
52323;DHT22;38263;52.920;6.238;2022-12-07T11:37:51;6.40;99.90
52323;DHT22;38263;52.920;6.238;2022-12-07T11:40:33;6.20;99.90
52323;DHT22;38263;52.920;6.238;2022-12-07T11:45:33;6.20;99.90
52323;DHT22;38263;52.920;6.238;2022-12-07T11:50:37;6.10;99.90
52323;DHT22;38263;52.920;6.238;2022-12-07T11:55:47;6.40;99.90
52323;DHT22;38263;52.920;6.238;2022-12-07T12:01:18;6.90;99.90
52323;DHT22;38263;52.920;6.238;2022-12-07T12:03:52;6.90;99.90
52323;DHT22;38263;52.920;6.238;2022-12-07T12:06:19;6.80;99.90
52323;DHT22;38263;52.920;6.238;2022-12-07T12:20:30;7.10;99.90
52323;DHT22;38263;52.920;6.238;2022-12-07T12:23:17;7.10;99.90
52323;DHT22;38263;52.920;6.238;2022-12-07T12:25:49;7.40;99.90
52323;DHT22;38263;52.920;6.238;2022-12-07T12:31:16;7.90;99.90
52323;DHT22;38263;52.920;6.238;2022-12-07T12:47:10;8.30;99.90
52323;DHT22;38263;52.920;6.238;2022-12-07T12:50:31;8.00;99.90
52323;DHT22;38263;52.920;6.238;2022-12-07T12:53:24;7.60;99.90
52323;DHT22;38263;52.920;6.238;2022-12-07T12:59:26;7.10;99.90
52323;DHT22;38263;52.920;6.238;2022-12-07T13:04:54;6.80;99.90
52323;DHT22;38263;52.920;6.238;2022-12-07T13:15:44;6.60;99.90
52323;DHT22;38263;52.920;6.238;2022-12-07T13:21:40;6.50;99.90
52323;DHT22;38263;52.920;6.238;2022-12-07T13:29:14;6.30;99.90
52323;DHT22;38263;52.920;6.238;2022-12-07T13:31:41;6.40;99.90
52323;DHT22;38263;52.920;6.238;2022-12-07T13:36:56;6.30;99.90
52323;DHT22;38263;52.920;6.238;2022-12-07T13:39:24;6.20;99.90
52323;DHT22;38263;52.920;6.238;2022-12-07T13:41:55;6.20;99.90
52323;DHT22;38263;52.920;6.238;2022-12-07T13:44:23;6.10;99.90
52323;DHT22;38263;52.920;6.238;2022-12-07T13:49:49;6.10;99.90
52323;DHT22;38263;52.920;6.238;2022-12-07T13:52:24;6.00;99.90
52323;DHT22;38263;52.920;6.238;2022-12-07T13:55:00;6.00;99.90
52323;DHT22;38263;52.920;6.238;2022-12-07T13:57:28;5.90;99.90
52323;DHT22;38263;52.920;6.238;2022-12-07T13:59:54;5.90;99.90
52323;DHT22;38263;52.920;6.238;2022-12-07T14:04:49;6.10;99.90
52323;DHT22;38263;52.920;6.238;2022-12-07T14:10:03;6.10;99.90
52323;DHT22;38263;52.920;6.238;2022-12-07T14:12:30;6.10;99.90
52323;DHT22;38263;52.920;6.238;2022-12-07T14:17:24;5.90;99.90
52323;DHT22;38263;52.920;6.238;2022-12-07T14:22:35;5.80;99.90
52323;DHT22;38263;52.920;6.238;2022-12-07T14:27:39;5.70;99.90
52323;DHT22;38263;52.920;6.238;2022-12-07T14:30:16;5.50;99.90
52323;DHT22;38263;52.920;6.238;2022-12-07T14:32:41;5.60;99.90
52323;DHT22;38263;52.920;6.238;2022-12-07T14:35:11;5.70;99.90
52323;DHT22;38263;52.920;6.238;2022-12-07T14:37:38;5.50;99.90
52323;DHT22;38263;52.920;6.238;2022-12-07T14:40:04;5.60;99.90
52323;DHT22;38263;52.920;6.238;2022-12-07T14:42:31;5.60;99.90
52323;DHT22;38263;52.920;6.238;2022-12-07T14:44:57;5.50;99.90
52323;DHT22;38263;52.920;6.238;2022-12-07T14:47:26;5.50;99.90
52323;DHT22;38263;52.920;6.238;2022-12-07T14:49:52;5.50;99.90
52323;DHT22;38263;52.920;6.238;2022-12-07T14:52:21;5.40;99.90
52323;DHT22;38263;52.920;6.238;2022-12-07T14:54:48;5.50;99.90
52323;DHT22;38263;52.920;6.238;2022-12-07T14:57:14;5.40;99.90
52323;DHT22;38263;52.920;6.238;2022-12-07T14:59:40;5.50;99.90
52323;DHT22;38263;52.920;6.238;2022-12-07T15:02:07;5.40;99.90
52323;DHT22;38263;52.920;6.238;2022-12-07T15:04:34;5.30;99.90
52323;DHT22;38263;52.920;6.238;2022-12-07T15:07:02;5.20;99.90
52323;DHT22;38263;52.920;6.238;2022-12-07T15:09:29;5.30;99.90
52323;DHT22;38263;52.920;6.238;2022-12-07T15:11:54;5.20;99.90
52323;DHT22;38263;52.920;6.238;2022-12-07T15:14:20;5.10;99.90
52323;DHT22;38263;52.920;6.238;2022-12-07T15:16:46;4.90;99.90
52323;DHT22;38263;52.920;6.238;2022-12-07T15:19:17;4.80;99.90
52323;DHT22;38263;52.920;6.238;2022-12-07T15:21:43;4.90;99.90
52323;DHT22;38263;52.920;6.238;2022-12-07T15:26:36;4.90;99.90
52323;DHT22;38263;52.920;6.238;2022-12-07T15:29:02;4.60;99.90
52323;DHT22;38263;52.920;6.238;2022-12-07T15:31:27;4.70;99.90
52323;DHT22;38263;52.920;6.238;2022-12-07T15:38:59;4.70;99.90
52323;DHT22;38263;52.920;6.238;2022-12-07T15:41:25;4.50;99.90
52323;DHT22;38263;52.920;6.238;2022-12-07T15:43:50;4.50;99.90
52323;DHT22;38263;52.920;6.238;2022-12-07T15:46:37;4.40;99.90
52323;DHT22;38263;52.920;6.238;2022-12-07T15:51:30;4.40;99.90
52323;DHT22;38263;52.920;6.238;2022-12-07T15:53:57;4.60;99.90
52323;DHT22;38263;52.920;6.238;2022-12-07T15:56:24;4.60;99.90
52323;DHT22;38263;52.920;6.238;2022-12-07T15:58:49;4.50;99.90
52323;DHT22;38263;52.920;6.238;2022-12-07T16:01:17;4.50;99.90
52323;DHT22;38263;52.920;6.238;2022-12-07T16:08:35;4.60;99.90
52323;DHT22;38263;52.920;6.238;2022-12-07T16:11:05;4.50;99.90
52323;DHT22;38263;52.920;6.238;2022-12-07T16:13:33;4.70;99.90
52323;DHT22;38263;52.920;6.238;2022-12-07T16:16:06;4.60;99.90
52323;DHT22;38263;52.920;6.238;2022-12-07T16:20:58;4.60;99.90
52323;DHT22;38263;52.920;6.238;2022-12-07T16:23:24;4.60;99.90
52323;DHT22;38263;52.920;6.238;2022-12-07T16:25:49;4.60;99.90
52323;DHT22;38263;52.920;6.238;2022-12-07T16:28:15;4.30;99.90
52323;DHT22;38263;52.920;6.238;2022-12-07T16:30:40;4.40;99.90
52323;DHT22;38263;52.920;6.238;2022-12-07T16:33:06;4.60;99.90
52323;DHT22;38263;52.920;6.238;2022-12-07T16:35:31;4.40;99.90
52323;DHT22;38263;52.920;6.238;2022-12-07T16:37:57;4.30;99.90
52323;DHT22;38263;52.920;6.238;2022-12-07T16:42:49;4.30;99.90
52323;DHT22;38263;52.920;6.238;2022-12-07T16:45:14;4.20;99.90
52323;DHT22;38263;52.920;6.238;2022-12-07T16:50:07;4.10;99.90
52323;DHT22;38263;52.920;6.238;2022-12-07T16:54:59;4.30;99.90
52323;DHT22;38263;52.920;6.238;2022-12-07T16:57:25;4.20;99.90
52323;DHT22;38263;52.920;6.238;2022-12-07T16:59:51;4.30;99.90
52323;DHT22;38263;52.920;6.238;2022-12-07T17:02:17;4.10;99.90
52323;DHT22;38263;52.920;6.238;2022-12-07T17:04:43;4.10;99.90
52323;DHT22;38263;52.920;6.238;2022-12-07T17:07:09;4.10;99.90
52323;DHT22;38263;52.920;6.238;2022-12-07T17:09:35;4.00;99.90
52323;DHT22;38263;52.920;6.238;2022-12-07T17:12:01;4.00;99.90
52323;DHT22;38263;52.920;6.238;2022-12-07T17:14:26;3.90;99.90
52323;DHT22;38263;52.920;6.238;2022-12-07T17:17:10;4.00;99.90
52323;DHT22;38263;52.920;6.238;2022-12-07T17:19:36;4.10;99.90
52323;DHT22;38263;52.920;6.238;2022-12-07T17:22:02;3.90;99.90
52323;DHT22;38263;52.920;6.238;2022-12-07T17:24:27;4.10;99.90
52323;DHT22;38263;52.920;6.238;2022-12-07T17:26:53;3.90;99.90
52323;DHT22;38263;52.920;6.238;2022-12-07T17:29:19;4.00;99.90
52323;DHT22;38263;52.920;6.238;2022-12-07T17:31:46;3.90;99.90
52323;DHT22;38263;52.920;6.238;2022-12-07T17:34:13;3.70;99.90
52323;DHT22;38263;52.920;6.238;2022-12-07T17:39:10;3.70;99.90
52323;DHT22;38263;52.920;6.238;2022-12-07T17:41:36;3.70;99.90
52323;DHT22;38263;52.920;6.238;2022-12-07T17:44:21;3.70;99.90
52323;DHT22;38263;52.920;6.238;2022-12-07T17:46:49;3.60;99.90
52323;DHT22;38263;52.920;6.238;2022-12-07T17:49:15;3.70;99.90
52323;DHT22;38263;52.920;6.238;2022-12-07T17:51:42;3.70;99.90
52323;DHT22;38263;52.920;6.238;2022-12-07T17:54:26;3.80;99.90
52323;DHT22;38263;52.920;6.238;2022-12-07T17:56:51;3.80;99.90
52323;DHT22;38263;52.920;6.238;2022-12-07T17:59:17;3.90;99.90
52323;DHT22;38263;52.920;6.238;2022-12-07T18:01:43;3.80;99.90
52323;DHT22;38263;52.920;6.238;2022-12-07T18:04:09;3.80;99.90
52323;DHT22;38263;52.920;6.238;2022-12-07T18:06:36;3.80;99.90
52323;DHT22;38263;52.920;6.238;2022-12-07T18:11:28;3.80;99.90
52323;DHT22;38263;52.920;6.238;2022-12-07T18:13:53;3.80;99.90
52323;DHT22;38263;52.920;6.238;2022-12-07T18:16:24;3.80;99.90
52323;DHT22;38263;52.920;6.238;2022-12-07T18:21:22;3.90;99.90
52323;DHT22;38263;52.920;6.238;2022-12-07T18:23:51;3.70;99.90
52323;DHT22;38263;52.920;6.238;2022-12-07T18:26:18;3.90;99.90
52323;DHT22;38263;52.920;6.238;2022-12-07T18:31:10;3.70;99.90
52323;DHT22;38263;52.920;6.238;2022-12-07T18:36:04;3.70;99.90
52323;DHT22;38263;52.920;6.238;2022-12-07T18:40:56;3.60;99.90
52323;DHT22;38263;52.920;6.238;2022-12-07T18:43:22;3.60;99.90
52323;DHT22;38263;52.920;6.238;2022-12-07T18:45:50;3.60;99.90
52323;DHT22;38263;52.920;6.238;2022-12-07T18:48:17;3.60;99.90
52323;DHT22;38263;52.920;6.238;2022-12-07T18:50:44;3.50;99.90
52323;DHT22;38263;52.920;6.238;2022-12-07T18:55:36;3.50;99.90
52323;DHT22;38263;52.920;6.238;2022-12-07T18:58:02;3.70;99.90
52323;DHT22;38263;52.920;6.238;2022-12-07T19:00:29;3.40;99.90
52323;DHT22;38263;52.920;6.238;2022-12-07T19:02:57;3.40;99.90
52323;DHT22;38263;52.920;6.238;2022-12-07T19:05:23;3.40;99.90
52323;DHT22;38263;52.920;6.238;2022-12-07T19:10:17;3.30;99.90
52323;DHT22;38263;52.920;6.238;2022-12-07T19:12:43;3.30;99.90
52323;DHT22;38263;52.920;6.238;2022-12-07T19:17:36;3.40;99.90
52323;DHT22;38263;52.920;6.238;2022-12-07T19:20:03;3.30;99.90
52323;DHT22;38263;52.920;6.238;2022-12-07T19:22:29;3.30;99.90
52323;DHT22;38263;52.920;6.238;2022-12-07T19:24:55;3.30;99.90
52323;DHT22;38263;52.920;6.238;2022-12-07T19:27:21;3.30;99.90
52323;DHT22;38263;52.920;6.238;2022-12-07T19:29:47;3.30;99.90
52323;DHT22;38263;52.920;6.238;2022-12-07T19:32:14;3.30;99.90
52323;DHT22;38263;52.920;6.238;2022-12-07T19:34:42;3.10;99.90
52323;DHT22;38263;52.920;6.238;2022-12-07T19:39:36;3.20;99.90
52323;DHT22;38263;52.920;6.238;2022-12-07T19:42:02;3.20;99.90
52323;DHT22;38263;52.920;6.238;2022-12-07T19:44:28;3.10;99.90
52323;DHT22;38263;52.920;6.238;2022-12-07T19:46:56;3.10;99.90
52323;DHT22;38263;52.920;6.238;2022-12-07T19:49:24;3.20;99.90
52323;DHT22;38263;52.920;6.238;2022-12-07T19:51:53;3.10;99.90
52323;DHT22;38263;52.920;6.238;2022-12-07T19:54:21;3.10;99.90
52323;DHT22;38263;52.920;6.238;2022-12-07T19:56:48;3.20;99.90
52323;DHT22;38263;52.920;6.238;2022-12-07T19:59:15;3.30;99.90
52323;DHT22;38263;52.920;6.238;2022-12-07T20:01:42;3.20;99.90
52323;DHT22;38263;52.920;6.238;2022-12-07T20:04:11;3.30;99.90
52323;DHT22;38263;52.920;6.238;2022-12-07T20:06:37;3.20;99.90
52323;DHT22;38263;52.920;6.238;2022-12-07T20:09:03;3.30;99.90
52323;DHT22;38263;52.920;6.238;2022-12-07T20:11:29;3.40;99.90
52323;DHT22;38263;52.920;6.238;2022-12-07T20:14:13;3.40;99.90
52323;DHT22;38263;52.920;6.238;2022-12-07T20:16:39;3.40;99.90
52323;DHT22;38263;52.920;6.238;2022-12-07T20:19:06;3.40;99.90
52323;DHT22;38263;52.920;6.238;2022-12-07T20:21:33;3.50;99.90
52323;DHT22;38263;52.920;6.238;2022-12-07T20:24:03;3.40;99.90
52323;DHT22;38263;52.920;6.238;2022-12-07T20:26:29;3.40;99.90
52323;DHT22;38263;52.920;6.238;2022-12-07T20:28:55;3.30;99.90
52323;DHT22;38263;52.920;6.238;2022-12-07T20:31:21;3.50;99.90
52323;DHT22;38263;52.920;6.238;2022-12-07T20:33:47;3.30;99.90